createdAt,value
2016-12-12T00:00:08.784Z,0
2016-12-12T00:01:18.637Z,0
2016-12-12T00:02:28.430Z,0
2016-12-12T00:03:38.214Z,0
2016-12-12T00:04:48.043Z,0
2016-12-12T00:05:57.505Z,0
2016-12-12T00:07:06.694Z,0
2016-12-12T00:08:16.503Z,0
2016-12-12T00:09:26.320Z,0
2016-12-12T00:10:36.098Z,0
2016-12-12T00:11:45.884Z,0
2016-12-12T00:12:55.656Z,0
2016-12-12T00:14:05.130Z,0
2016-12-12T00:15:14.591Z,0
2016-12-12T00:16:23.848Z,0
2016-12-12T00:17:33.318Z,0
2016-12-12T00:18:42.502Z,0
2016-12-12T00:19:51.693Z,0
2016-12-12T00:21:01.293Z,0
2016-12-12T00:22:10.800Z,0
2016-12-12T00:23:20.288Z,0
2016-12-12T00:24:30.072Z,0
2016-12-12T00:25:39.637Z,0
2016-12-12T00:26:49.177Z,0
2016-12-12T00:27:58.638Z,0
2016-12-12T00:29:08.136Z,0
2016-12-12T00:30:17.612Z,0
2016-12-12T00:31:27.389Z,0
2016-12-12T00:32:37.169Z,0
2016-12-12T00:33:46.944Z,0
2016-12-12T00:34:56.405Z,0
2016-12-12T00:36:05.585Z,0
2016-12-12T00:37:15.391Z,0
2016-12-12T00:38:24.285Z,0
2016-12-12T00:39:34.199Z,0
2016-12-12T00:40:43.672Z,0
2016-12-12T00:41:52.884Z,0
2016-12-12T00:43:02.381Z,0
2016-12-12T00:44:12.390Z,0
2016-12-12T00:45:21.898Z,0
2016-12-12T00:46:31.085Z,0
2016-12-12T00:47:40.860Z,0
2016-12-12T00:48:50.126Z,0
2016-12-12T00:49:59.283Z,0
2016-12-12T00:51:09.113Z,0
2016-12-12T00:52:18.898Z,0
2016-12-12T00:53:28.365Z,0
2016-12-12T00:54:38.144Z,0
2016-12-12T00:55:47.662Z,0
2016-12-12T00:56:57.458Z,0
2016-12-12T00:58:07.243Z,0
2016-12-12T00:59:16.399Z,0
2016-12-12T01:00:26.198Z,0
2016-12-12T01:01:35.968Z,0
2016-12-12T01:02:45.467Z,0
2016-12-12T01:03:55.236Z,0
2016-12-12T01:05:04.739Z,0
2016-12-12T01:06:14.603Z,0
2016-12-12T01:07:24.094Z,0
2016-12-12T01:08:33.312Z,0
2016-12-12T01:09:42.777Z,0
2016-12-12T01:10:52.547Z,0
2016-12-12T01:12:02.342Z,0
2016-12-12T01:13:12.184Z,0
2016-12-12T01:14:21.720Z,0
2016-12-12T01:15:31.557Z,0
2016-12-12T01:16:41.333Z,0
2016-12-12T01:17:50.617Z,0
2016-12-12T01:19:00.414Z,0
2016-12-12T01:20:10.205Z,0
2016-12-12T01:21:19.381Z,0
2016-12-12T01:22:28.879Z,0
2016-12-12T01:23:38.731Z,0
2016-12-12T01:24:48.204Z,0
2016-12-12T01:25:57.717Z,0
2016-12-12T01:27:07.181Z,0
2016-12-12T01:28:17.066Z,0
2016-12-12T01:29:26.842Z,0
2016-12-12T01:30:36.677Z,0
2016-12-12T01:31:46.451Z,0
2016-12-12T01:32:55.921Z,0
2016-12-12T01:34:05.154Z,0
2016-12-12T01:35:14.930Z,0
2016-12-12T01:36:24.700Z,0
2016-12-12T01:37:34.495Z,0
2016-12-12T01:38:44.266Z,0
2016-12-12T01:39:54.053Z,0
2016-12-12T01:41:03.848Z,0
2016-12-12T01:42:13.353Z,0
2016-12-12T01:43:22.809Z,0
2016-12-12T01:44:32.274Z,0
2016-12-12T01:45:42.048Z,0
2016-12-12T01:46:51.534Z,0
2016-12-12T01:48:01.343Z,0
2016-12-12T01:49:11.141Z,0
2016-12-12T01:50:20.615Z,0
2016-12-12T01:51:30.093Z,0
2016-12-12T01:52:39.967Z,0
2016-12-12T01:53:49.804Z,0
2016-12-12T01:54:59.624Z,0
2016-12-12T01:56:09.404Z,0
2016-12-12T01:57:18.873Z,0
2016-12-12T01:58:28.401Z,0
2016-12-12T01:59:38.316Z,0
2016-12-12T02:00:48.092Z,0
2016-12-12T02:01:57.555Z,0
2016-12-12T02:03:07.347Z,0
2016-12-12T02:04:17.119Z,0
2016-12-12T02:05:26.990Z,0
2016-12-12T02:06:36.792Z,0
2016-12-12T02:07:46.419Z,0
2016-12-12T02:08:55.875Z,0
2016-12-12T02:10:05.114Z,0
2016-12-12T02:11:15.049Z,0
2016-12-12T02:12:24.507Z,0
2016-12-12T02:13:33.690Z,0
2016-12-12T02:14:43.217Z,0
2016-12-12T02:15:52.738Z,0
2016-12-12T02:17:02.521Z,0
2016-12-12T02:18:12.296Z,0
2016-12-12T02:19:22.079Z,0
2016-12-12T02:20:31.835Z,0
2016-12-12T02:21:41.307Z,0
2016-12-12T02:22:51.168Z,0
2016-12-12T02:24:00.993Z,0
2016-12-12T02:25:10.153Z,0
2016-12-12T02:26:19.703Z,0
2016-12-12T02:27:29.475Z,0
2016-12-12T02:28:39.365Z,0
2016-12-12T02:29:49.166Z,0
2016-12-12T02:30:58.955Z,0
2016-12-12T02:32:08.762Z,0
2016-12-12T02:33:18.562Z,0
2016-12-12T02:34:28.137Z,0
2016-12-12T02:35:37.907Z,0
2016-12-12T02:36:47.088Z,0
2016-12-12T02:37:56.757Z,0
2016-12-12T02:39:06.570Z,0
2016-12-12T02:40:16.366Z,0
2016-12-12T02:41:25.831Z,0
2016-12-12T02:42:35.061Z,0
2016-12-12T02:43:44.240Z,0
2016-12-12T02:44:53.729Z,0
2016-12-12T02:46:03.504Z,0
2016-12-12T02:47:13.301Z,0
2016-12-12T02:48:22.766Z,0
2016-12-12T02:49:32.224Z,0
2016-12-12T02:50:42.185Z,0
2016-12-12T02:51:51.645Z,0
2016-12-12T02:53:01.448Z,0
2016-12-12T02:54:11.241Z,0
2016-12-12T02:55:20.757Z,0
2016-12-12T02:56:30.224Z,0
2016-12-12T02:57:39.785Z,0
2016-12-12T02:58:49.342Z,0
2016-12-12T02:59:58.799Z,0
2016-12-12T03:01:08.307Z,0
2016-12-12T03:02:18.082Z,0
2016-12-12T03:03:27.614Z,0
2016-12-12T03:04:37.084Z,0
2016-12-12T03:05:46.897Z,0
2016-12-12T03:06:55.741Z,0
2016-12-12T03:08:05.231Z,0
2016-12-12T03:09:14.690Z,0
2016-12-12T03:10:24.163Z,0
2016-12-12T03:11:33.331Z,0
2016-12-12T03:12:42.990Z,0
2016-12-12T03:13:52.162Z,0
2016-12-12T03:15:01.645Z,0
2016-12-12T03:16:11.160Z,0
2016-12-12T03:17:20.854Z,0
2016-12-12T03:18:30.025Z,0
2016-12-12T03:19:39.896Z,0
2016-12-12T03:20:49.724Z,0
2016-12-12T03:21:59.581Z,0
2016-12-12T03:23:09.414Z,0
2016-12-12T03:24:19.199Z,0
2016-12-12T03:25:29.104Z,0
2016-12-12T03:26:38.916Z,0
2016-12-12T03:27:48.206Z,0
2016-12-12T03:28:57.998Z,0
2016-12-12T03:30:07.478Z,0
2016-12-12T03:31:16.967Z,0
2016-12-12T03:32:26.813Z,0
2016-12-12T03:33:36.604Z,0
2016-12-12T03:34:46.099Z,0
2016-12-12T03:35:55.899Z,0
2016-12-12T03:37:05.491Z,0
2016-12-12T03:38:14.994Z,0
2016-12-12T03:39:24.787Z,0
2016-12-12T03:40:34.559Z,0
2016-12-12T03:41:44.332Z,0
2016-12-12T03:42:54.112Z,0
2016-12-12T03:44:03.661Z,0
2016-12-12T03:45:12.811Z,0
2016-12-12T03:46:22.709Z,0
2016-12-12T03:47:31.880Z,0
2016-12-12T03:48:41.350Z,0
2016-12-12T03:49:51.138Z,0
2016-12-12T03:51:00.634Z,0
2016-12-12T03:52:09.790Z,0
2016-12-12T03:53:19.597Z,0
2016-12-12T03:54:29.069Z,0
2016-12-12T03:55:39.062Z,0
2016-12-12T03:56:48.858Z,0
2016-12-12T03:57:58.652Z,0
2016-12-12T03:59:08.129Z,0
2016-12-12T04:00:17.945Z,0
2016-12-12T04:01:26.836Z,0
2016-12-12T04:02:36.628Z,0
2016-12-12T04:03:46.414Z,0
2016-12-12T04:04:56.280Z,0
2016-12-12T04:06:05.781Z,0
2016-12-12T04:07:15.308Z,0
2016-12-12T04:08:25.133Z,0
2016-12-12T04:09:34.925Z,0
2016-12-12T04:10:44.154Z,0
2016-12-12T04:11:53.622Z,0
2016-12-12T04:13:02.936Z,0
2016-12-12T04:14:12.700Z,0
2016-12-12T04:15:22.482Z,0
2016-12-12T04:16:31.687Z,0
2016-12-12T04:17:41.471Z,0
2016-12-12T04:18:51.238Z,0
2016-12-12T04:20:01.001Z,0
2016-12-12T04:21:10.179Z,0
2016-12-12T04:22:19.338Z,0
2016-12-12T04:23:29.139Z,0
2016-12-12T04:24:38.601Z,0
2016-12-12T04:25:48.383Z,0
2016-12-12T04:26:58.174Z,0
2016-12-12T04:28:07.674Z,0
2016-12-12T04:29:17.674Z,0
2016-12-12T04:30:27.470Z,0
2016-12-12T04:31:37.226Z,0
2016-12-12T04:32:46.701Z,0
2016-12-12T04:33:55.877Z,0
2016-12-12T04:35:05.674Z,0
2016-12-12T04:36:14.952Z,0
2016-12-12T04:37:24.779Z,0
2016-12-12T04:38:34.580Z,0
2016-12-12T04:39:44.051Z,0
2016-12-12T04:40:53.563Z,0
2016-12-12T04:42:03.342Z,0
2016-12-12T04:43:12.576Z,0
2016-12-12T04:44:22.368Z,0
2016-12-12T04:45:32.180Z,0
2016-12-12T04:46:41.667Z,0
2016-12-12T04:47:51.439Z,0
2016-12-12T04:49:01.235Z,0
2016-12-12T04:50:11.028Z,0
2016-12-12T04:51:20.521Z,0
2016-12-12T04:52:30.002Z,0
2016-12-12T04:53:39.580Z,0
2016-12-12T04:54:49.412Z,0
2016-12-12T04:55:59.185Z,0
2016-12-12T04:57:08.660Z,0
2016-12-12T04:58:18.148Z,0
2016-12-12T04:59:27.930Z,0
2016-12-12T05:00:37.554Z,0
2016-12-12T05:01:47.081Z,0
2016-12-12T05:02:56.873Z,0
2016-12-12T05:04:06.332Z,0
2016-12-12T05:05:16.102Z,0
2016-12-12T05:06:25.884Z,0
2016-12-12T05:07:35.477Z,0
2016-12-12T05:08:44.960Z,0
2016-12-12T05:09:54.148Z,0
2016-12-12T05:11:03.986Z,0
2016-12-12T05:12:13.515Z,0
2016-12-12T05:13:22.679Z,0
2016-12-12T05:14:31.898Z,0
2016-12-12T05:15:41.667Z,0
2016-12-12T05:16:51.438Z,0
2016-12-12T05:18:00.959Z,0
2016-12-12T05:19:10.760Z,0
2016-12-12T05:20:20.573Z,0
2016-12-12T05:21:30.342Z,0
2016-12-12T05:22:40.134Z,0
2016-12-12T05:23:49.894Z,0
2016-12-12T05:24:59.476Z,0
2016-12-12T05:26:09.253Z,0
2016-12-12T05:27:18.746Z,0
2016-12-12T05:28:28.235Z,0
2016-12-12T05:29:38.015Z,0
2016-12-12T05:30:47.779Z,0
2016-12-12T05:31:57.610Z,0
2016-12-12T05:33:07.094Z,0
2016-12-12T05:34:16.557Z,0
2016-12-12T05:35:26.052Z,0
2016-12-12T05:36:35.891Z,0
2016-12-12T05:37:45.691Z,0
2016-12-12T05:38:55.503Z,0
2016-12-12T05:40:04.589Z,0
2016-12-12T05:41:13.883Z,0
2016-12-12T05:42:23.338Z,0
2016-12-12T05:43:33.272Z,0
2016-12-12T05:44:42.772Z,0
2016-12-12T05:45:52.290Z,0
2016-12-12T05:47:02.169Z,0
2016-12-12T05:48:12.058Z,0
2016-12-12T05:49:21.839Z,0
2016-12-12T05:50:31.631Z,0
2016-12-12T05:51:41.239Z,0
2016-12-12T05:52:51.019Z,0
2016-12-12T05:54:00.804Z,0
2016-12-12T05:55:10.613Z,0
2016-12-12T05:56:20.097Z,0
2016-12-12T05:57:29.558Z,0
2016-12-12T05:58:41.993Z,0
2016-12-12T05:59:51.462Z,0
2016-12-12T06:01:00.389Z,0
2016-12-12T06:02:09.896Z,0
2016-12-12T06:03:19.375Z,0
2016-12-12T06:04:29.321Z,0
2016-12-12T06:05:38.540Z,0
2016-12-12T06:06:48.046Z,0
2016-12-12T06:07:57.512Z,0
2016-12-12T06:09:07.325Z,0
2016-12-12T06:10:17.153Z,0
2016-12-12T06:11:26.989Z,0
2016-12-12T06:12:36.793Z,0
2016-12-12T06:13:46.611Z,0
2016-12-12T06:14:56.077Z,0
2016-12-12T06:16:05.864Z,0
2016-12-12T06:17:15.648Z,0
2016-12-12T06:18:25.217Z,0
2016-12-12T06:19:34.391Z,0
2016-12-12T06:20:44.247Z,0
2016-12-12T06:21:53.749Z,0
2016-12-12T06:23:03.517Z,0
2016-12-12T06:24:13.332Z,0
2016-12-12T06:25:23.107Z,0
2016-12-12T06:26:32.577Z,0
2016-12-12T06:27:42.055Z,0
2016-12-12T06:28:51.904Z,0
2016-12-12T06:30:01.731Z,0
2016-12-12T06:31:11.239Z,0
2016-12-12T06:32:20.406Z,0
2016-12-12T06:33:30.179Z,0
2016-12-12T06:34:39.977Z,0
2016-12-12T06:35:48.882Z,0
2016-12-12T06:36:58.714Z,4
2016-12-12T06:38:08.247Z,4
2016-12-12T06:39:18.032Z,4
2016-12-12T06:40:27.504Z,4
2016-12-12T06:41:37.324Z,4
2016-12-12T06:42:46.803Z,4
2016-12-12T06:43:56.102Z,4
2016-12-12T06:45:05.612Z,4
2016-12-12T06:46:15.391Z,8
2016-12-12T06:47:24.862Z,12
2016-12-12T06:48:34.328Z,12
2016-12-12T06:49:43.802Z,16
2016-12-12T06:50:53.731Z,24
2016-12-12T06:52:03.541Z,28
2016-12-12T06:53:13.029Z,32
2016-12-12T06:54:22.848Z,36
2016-12-12T06:55:32.774Z,36
2016-12-12T06:56:41.630Z,44
2016-12-12T06:57:51.090Z,52
2016-12-12T06:59:00.884Z,60
2016-12-12T07:00:10.665Z,60
2016-12-12T07:01:19.838Z,76
2016-12-12T07:02:29.622Z,96
2016-12-12T07:03:39.085Z,112
2016-12-12T07:04:48.867Z,140
2016-12-12T07:05:58.327Z,164
2016-12-12T07:07:08.122Z,188
2016-12-12T07:08:17.946Z,204
2016-12-12T07:09:27.783Z,216
2016-12-12T07:10:37.253Z,240
2016-12-12T07:11:46.862Z,264
2016-12-12T07:12:56.650Z,268
2016-12-12T07:14:06.110Z,268
2016-12-12T07:15:15.587Z,256
2016-12-12T07:16:25.351Z,256
2016-12-12T07:17:35.187Z,260
2016-12-12T07:18:44.653Z,292
2016-12-12T07:19:54.420Z,308
2016-12-12T07:21:04.201Z,340
2016-12-12T07:22:13.712Z,360
2016-12-12T07:23:23.558Z,404
2016-12-12T07:24:33.325Z,404
2016-12-12T07:25:42.200Z,408
2016-12-12T07:26:51.721Z,404
2016-12-12T07:28:01.228Z,324
2016-12-12T07:29:11.138Z,408
2016-12-12T07:30:20.925Z,460
2016-12-12T07:31:30.724Z,508
2016-12-12T07:32:40.500Z,596
2016-12-12T07:33:50.300Z,704
2016-12-12T07:35:00.078Z,672
2016-12-12T07:36:09.570Z,608
2016-12-12T07:37:19.078Z,580
2016-12-12T07:38:28.890Z,572
2016-12-12T07:39:38.065Z,600
2016-12-12T07:40:47.549Z,620
2016-12-12T07:41:57.155Z,708
2016-12-12T07:43:06.665Z,688
2016-12-12T07:44:16.451Z,692
2016-12-12T07:45:25.950Z,668
2016-12-12T07:46:35.496Z,616
2016-12-12T07:47:44.960Z,680
2016-12-12T07:48:54.115Z,744
2016-12-12T07:50:03.901Z,564
2016-12-12T07:51:13.364Z,568
2016-12-12T07:52:22.861Z,608
2016-12-12T07:53:32.643Z,588
2016-12-12T07:54:42.142Z,316
2016-12-12T07:55:51.462Z,368
2016-12-12T07:57:00.958Z,416
2016-12-12T07:58:10.424Z,292
2016-12-12T07:59:20.191Z,336
2016-12-12T08:00:29.994Z,552
2016-12-12T08:01:39.849Z,444
2016-12-12T08:02:49.343Z,472
2016-12-12T08:03:58.805Z,496
2016-12-12T08:05:07.660Z,692
2016-12-12T08:06:17.486Z,836
2016-12-12T08:07:26.665Z,668
2016-12-12T08:08:35.861Z,604
2016-12-12T08:09:45.362Z,584
2016-12-12T08:10:54.829Z,564
2016-12-12T08:12:04.607Z,744
2016-12-12T08:13:14.387Z,900
2016-12-12T08:14:23.852Z,908
2016-12-12T08:15:33.188Z,1140
2016-12-12T08:16:42.964Z,1120
2016-12-12T08:17:52.742Z,960
2016-12-12T08:19:02.262Z,808
2016-12-12T08:20:11.727Z,836
2016-12-12T08:21:21.500Z,984
2016-12-12T08:22:31.284Z,964
2016-12-12T08:23:41.052Z,948
2016-12-12T08:24:50.881Z,964
2016-12-12T08:26:00.041Z,1084
2016-12-12T08:27:09.841Z,1240
2016-12-12T08:28:19.381Z,1056
2016-12-12T08:29:29.298Z,952
2016-12-12T08:30:39.075Z,1104
2016-12-12T08:31:48.265Z,1096
2016-12-12T08:32:57.742Z,1048
2016-12-12T08:34:07.215Z,1024
2016-12-12T08:35:16.990Z,1104
2016-12-12T08:36:26.781Z,1292
2016-12-12T08:37:36.540Z,1280
2016-12-12T08:38:45.725Z,1376
2016-12-12T08:39:55.204Z,1452
2016-12-12T08:41:05.021Z,1520
2016-12-12T08:42:14.509Z,1436
2016-12-12T08:43:24.295Z,1264
2016-12-12T08:44:33.776Z,1296
2016-12-12T08:45:43.581Z,1548
2016-12-12T08:46:53.087Z,1720
2016-12-12T08:48:02.618Z,1920
2016-12-12T08:49:12.448Z,1752
2016-12-12T08:50:21.926Z,1972
2016-12-12T08:51:31.728Z,2192
2016-12-12T08:52:41.243Z,2104
2016-12-12T08:53:50.423Z,2060
2016-12-12T08:55:00.247Z,1844
2016-12-12T08:56:09.707Z,1852
2016-12-12T08:57:19.511Z,1620
2016-12-12T08:58:29.313Z,1660
2016-12-12T08:59:39.137Z,2020
2016-12-12T09:00:48.955Z,2140
2016-12-12T09:01:58.813Z,1984
2016-12-12T09:03:08.615Z,2132
2016-12-12T09:04:49.998Z,1816
2016-12-12T09:05:59.813Z,1680
2016-12-12T09:07:09.639Z,1780
2016-12-12T09:08:18.804Z,1828
2016-12-12T09:09:28.297Z,1828
2016-12-12T09:10:38.093Z,1892
2016-12-12T09:11:47.878Z,1972
2016-12-12T09:12:57.681Z,1892
2016-12-12T09:14:07.527Z,2184
2016-12-12T09:15:17.059Z,2296
2016-12-12T09:16:26.865Z,2392
2016-12-12T09:17:36.340Z,2656
2016-12-12T09:18:45.838Z,2264
2016-12-12T09:19:55.328Z,2080
2016-12-12T09:21:04.835Z,2200
2016-12-12T09:22:14.778Z,1904
2016-12-12T09:23:24.543Z,1940
2016-12-12T09:24:34.339Z,1988
2016-12-12T09:25:43.824Z,1984
2016-12-12T09:26:53.626Z,1724
2016-12-12T09:28:03.084Z,1884
2016-12-12T09:29:13.009Z,1540
2016-12-12T09:30:22.790Z,1500
2016-12-12T09:31:32.642Z,1640
2016-12-12T09:32:41.862Z,2316
2016-12-12T09:33:51.689Z,2132
2016-12-12T09:35:00.848Z,2212
2016-12-12T09:36:10.331Z,1916
2016-12-12T09:37:20.151Z,1768
2016-12-12T09:38:30.056Z,2244
2016-12-12T09:39:39.849Z,1864
2016-12-12T09:40:49.656Z,1908
2016-12-12T09:41:59.438Z,3036
2016-12-12T09:43:09.236Z,2508
2016-12-12T09:44:18.390Z,2892
2016-12-12T09:45:28.186Z,3940
2016-12-12T09:46:37.960Z,4072
2016-12-12T09:47:47.787Z,3872
2016-12-12T09:48:57.144Z,4148
2016-12-12T09:50:06.929Z,3940
2016-12-12T09:51:16.757Z,4720
2016-12-12T09:52:26.535Z,4496
2016-12-12T09:53:36.009Z,3856
2016-12-12T09:54:46.029Z,5316
2016-12-12T09:55:55.858Z,6008
2016-12-12T09:57:05.327Z,6180
2016-12-12T09:58:14.845Z,6964
2016-12-12T09:59:24.314Z,6952
2016-12-12T10:00:34.086Z,7304
2016-12-12T10:01:43.242Z,7600
2016-12-12T10:02:52.710Z,7248
2016-12-12T10:04:02.190Z,7132
2016-12-12T10:05:12.005Z,7372
2016-12-12T10:06:21.172Z,7080
2016-12-12T10:07:30.638Z,6132
2016-12-12T10:08:40.448Z,5016
2016-12-12T10:09:50.232Z,4668
2016-12-12T10:11:00.042Z,4432
2016-12-12T10:12:09.553Z,4080
2016-12-12T10:13:19.407Z,4172
2016-12-12T10:14:28.882Z,4360
2016-12-12T10:15:38.368Z,4860
2016-12-12T10:16:47.541Z,5108
2016-12-12T10:17:56.707Z,5152
2016-12-12T10:19:06.270Z,5108
2016-12-12T10:20:15.421Z,4828
2016-12-12T10:21:25.193Z,4976
2016-12-12T10:22:34.977Z,4744
2016-12-12T10:23:44.467Z,5272
2016-12-12T10:24:54.337Z,5676
2016-12-12T10:26:04.143Z,6224
2016-12-12T10:27:13.956Z,6528
2016-12-12T10:28:23.465Z,5860
2016-12-12T10:29:33.234Z,5156
2016-12-12T10:30:42.393Z,4528
2016-12-12T10:31:52.206Z,4552
2016-12-12T10:33:02.016Z,4768
2016-12-12T10:34:11.500Z,4688
2016-12-12T10:35:21.369Z,4588
2016-12-12T10:36:31.234Z,4716
2016-12-12T10:37:41.017Z,5560
2016-12-12T10:38:50.478Z,6988
2016-12-12T10:40:00.310Z,8012
2016-12-12T10:41:09.777Z,8060
2016-12-12T10:42:19.267Z,8140
2016-12-12T10:43:28.757Z,7576
2016-12-12T10:44:38.220Z,7596
2016-12-12T10:45:48.019Z,8056
2016-12-12T10:46:57.807Z,8344
2016-12-12T10:48:06.969Z,8172
2016-12-12T10:49:16.492Z,8300
2016-12-12T10:50:26.270Z,8880
2016-12-12T10:51:36.091Z,10072
2016-12-12T10:52:45.923Z,11944
2016-12-12T10:53:55.518Z,11588
2016-12-12T10:55:05.325Z,11300
2016-12-12T10:56:14.545Z,9316
2016-12-12T10:57:24.365Z,7312
2016-12-12T10:58:33.843Z,8496
2016-12-12T10:59:43.403Z,8476
2016-12-12T11:00:52.600Z,9796
2016-12-12T11:02:02.443Z,11628
2016-12-12T11:03:11.604Z,11808
2016-12-12T11:04:21.517Z,11992
2016-12-12T11:05:31.291Z,14816
2016-12-12T11:06:41.093Z,17312
2016-12-12T11:07:50.907Z,16480
2016-12-12T11:09:00.703Z,16480
2016-12-12T11:10:10.534Z,16672
2016-12-12T11:11:20.345Z,16480
2016-12-12T11:12:29.942Z,15020
2016-12-12T11:13:39.776Z,13900
2016-12-12T11:14:49.558Z,15068
2016-12-12T11:15:59.342Z,15648
2016-12-12T11:17:09.214Z,12788
2016-12-12T11:18:18.684Z,10712
2016-12-12T11:19:28.177Z,8552
2016-12-12T11:20:38.091Z,8580
2016-12-12T11:21:46.964Z,9244
2016-12-12T11:22:56.486Z,8516
2016-12-12T11:24:05.971Z,7160
2016-12-12T11:25:15.563Z,7124
2016-12-12T11:26:25.369Z,7440
2016-12-12T11:27:34.867Z,7320
2016-12-12T11:28:44.334Z,6844
2016-12-12T11:29:53.821Z,6080
2016-12-12T11:31:03.630Z,5896
2016-12-12T11:32:13.224Z,6148
2016-12-12T11:33:23.049Z,5676
2016-12-12T11:34:32.867Z,6188
2016-12-12T11:35:42.667Z,6340
2016-12-12T11:36:52.159Z,6308
2016-12-12T11:38:01.973Z,6044
2016-12-12T11:39:11.822Z,6300
2016-12-12T11:40:21.287Z,6852
2016-12-12T11:41:31.109Z,8048
2016-12-12T11:42:40.891Z,8512
2016-12-12T11:43:49.784Z,7920
2016-12-12T11:44:59.595Z,7412
2016-12-12T11:46:08.776Z,5704
2016-12-12T11:47:18.600Z,5488
2016-12-12T11:48:28.401Z,5252
2016-12-12T11:49:37.291Z,5644
2016-12-12T11:50:47.159Z,5976
2016-12-12T11:51:56.674Z,6268
2016-12-12T11:53:06.519Z,6552
2016-12-12T11:54:16.299Z,6836
2016-12-12T11:55:26.079Z,6228
2016-12-12T11:56:35.866Z,5732
2016-12-12T11:57:45.471Z,5704
2016-12-12T11:58:55.256Z,5900
2016-12-12T12:00:04.780Z,5572
2016-12-12T12:01:14.579Z,4564
2016-12-12T12:02:24.044Z,4464
2016-12-12T12:03:33.527Z,4880
2016-12-12T12:04:43.309Z,5412
2016-12-12T12:05:53.108Z,5712
2016-12-12T12:07:02.623Z,6204
2016-12-12T12:08:12.174Z,6572
2016-12-12T12:09:21.343Z,6776
2016-12-12T12:10:31.170Z,6924
2016-12-12T12:11:41.022Z,6692
2016-12-12T12:12:50.821Z,7060
2016-12-12T12:14:00.309Z,7028
2016-12-12T12:15:09.812Z,6436
2016-12-12T12:16:19.357Z,6272
2016-12-12T12:17:29.261Z,6100
2016-12-12T12:18:38.761Z,5660
2016-12-12T12:19:48.572Z,5292
2016-12-12T12:20:58.464Z,5172
2016-12-12T12:22:08.416Z,5324
2016-12-12T12:23:18.269Z,5464
2016-12-12T12:24:28.046Z,4760
2016-12-12T12:25:37.723Z,5096
2016-12-12T12:26:47.528Z,5304
2016-12-12T12:27:57.338Z,5328
2016-12-12T12:29:07.153Z,5344
2016-12-12T12:30:16.629Z,5072
2016-12-12T12:31:26.447Z,4864
2016-12-12T12:32:35.944Z,4844
2016-12-12T12:33:45.759Z,5032
2016-12-12T12:34:55.562Z,5068
2016-12-12T12:36:05.377Z,4408
2016-12-12T12:37:15.187Z,3460
2016-12-12T12:38:24.660Z,2996
2016-12-12T12:39:34.106Z,2904
2016-12-12T12:40:43.636Z,2584
2016-12-12T12:41:53.223Z,2076
2016-12-12T12:43:02.688Z,2044
2016-12-12T12:44:12.496Z,1844
2016-12-12T12:45:22.292Z,1684
2016-12-12T12:46:31.802Z,1532
2016-12-12T12:47:41.298Z,1396
2016-12-12T12:48:50.819Z,1292
2016-12-12T12:50:00.306Z,1284
2016-12-12T12:51:09.775Z,1348
2016-12-12T12:52:19.269Z,1284
2016-12-12T12:53:28.738Z,1260
2016-12-12T12:54:38.295Z,1192
2016-12-12T12:55:48.088Z,1104
2016-12-12T12:56:57.564Z,1032
2016-12-12T12:58:07.366Z,1016
2016-12-12T12:59:17.155Z,1024
2016-12-12T13:00:26.732Z,1024
2016-12-12T13:01:36.223Z,1012
2016-12-12T13:02:46.044Z,956
2016-12-12T13:03:55.205Z,948
2016-12-12T13:05:04.969Z,1120
2016-12-12T13:06:14.816Z,1268
2016-12-12T13:07:24.596Z,1376
2016-12-12T13:08:34.391Z,1428
2016-12-12T13:09:43.873Z,1376
2016-12-12T13:10:53.699Z,1332
2016-12-12T13:12:03.292Z,1324
2016-12-12T13:13:13.087Z,1464
2016-12-12T13:14:22.646Z,1528
2016-12-12T13:15:31.830Z,1596
2016-12-12T13:16:41.627Z,1584
2016-12-12T13:17:51.150Z,1596
2016-12-12T13:19:00.976Z,1652
2016-12-12T13:20:10.815Z,1712
2016-12-12T13:21:20.655Z,1656
2016-12-12T13:22:30.447Z,1560
2016-12-12T13:23:39.923Z,1496
2016-12-12T13:24:49.704Z,1536
2016-12-12T13:25:59.186Z,1508
2016-12-12T13:27:08.364Z,1548
2016-12-12T13:28:17.867Z,1428
2016-12-12T13:29:27.831Z,1428
2016-12-12T13:30:37.310Z,1492
2016-12-12T13:31:46.811Z,1508
2016-12-12T13:32:56.620Z,1548
2016-12-12T13:34:06.409Z,1416
2016-12-12T13:35:15.891Z,1332
2016-12-12T13:36:25.666Z,1328
2016-12-12T13:37:35.122Z,1276
2016-12-12T13:38:45.014Z,1348
2016-12-12T13:39:54.502Z,1368
2016-12-12T13:41:04.103Z,1436
2016-12-12T13:42:13.267Z,1416
2016-12-12T13:43:23.094Z,1388
2016-12-12T13:44:32.579Z,1492
2016-12-12T13:45:42.355Z,1512
2016-12-12T13:46:51.878Z,1448
2016-12-12T13:48:01.810Z,1416
2016-12-12T13:49:11.285Z,1368
2016-12-12T13:50:20.899Z,1424
2016-12-12T13:51:30.700Z,1472
2016-12-12T13:52:40.590Z,1380
2016-12-12T13:53:50.398Z,1320
2016-12-12T13:54:59.890Z,1288
2016-12-12T13:56:09.711Z,1248
2016-12-12T13:57:19.500Z,1188
2016-12-12T13:58:28.989Z,1132
2016-12-12T13:59:38.767Z,1068
2016-12-12T14:00:48.575Z,996
2016-12-12T14:01:58.044Z,940
2016-12-12T14:03:07.504Z,856
2016-12-12T14:04:17.351Z,800
2016-12-12T14:05:26.920Z,800
2016-12-12T14:06:36.401Z,776
2016-12-12T14:07:45.947Z,720
2016-12-12T14:08:55.746Z,668
2016-12-12T14:10:05.578Z,632
2016-12-12T14:11:15.092Z,612
2016-12-12T14:12:24.284Z,600
2016-12-12T14:13:34.055Z,576
2016-12-12T14:14:43.829Z,536
2016-12-12T14:15:53.637Z,524
2016-12-12T14:17:02.811Z,508
2016-12-12T14:18:12.319Z,496
2016-12-12T14:19:22.174Z,484
2016-12-12T14:20:32.115Z,456
2016-12-12T14:21:41.902Z,440
2016-12-12T14:22:51.409Z,428
2016-12-12T14:24:00.873Z,428
2016-12-12T14:25:10.025Z,424
2016-12-12T14:26:19.819Z,412
2016-12-12T14:27:28.996Z,388
2016-12-12T14:28:38.786Z,368
2016-12-12T14:29:48.570Z,364
2016-12-12T14:30:58.096Z,356
2016-12-12T14:32:07.587Z,340
2016-12-12T14:33:17.058Z,316
2016-12-12T14:34:26.600Z,296
2016-12-12T14:35:36.094Z,288
2016-12-12T14:36:45.908Z,272
2016-12-12T14:37:55.749Z,260
2016-12-12T14:39:05.660Z,240
2016-12-12T14:40:15.472Z,228
2016-12-12T14:41:25.284Z,220
2016-12-12T14:42:35.118Z,208
2016-12-12T14:43:44.585Z,204
2016-12-12T14:44:54.091Z,204
2016-12-12T14:46:03.867Z,204
2016-12-12T14:47:13.393Z,196
2016-12-12T14:48:22.889Z,184
2016-12-12T14:49:32.686Z,176
2016-12-12T14:50:42.624Z,172
2016-12-12T14:51:52.412Z,160
2016-12-12T14:53:02.209Z,148
2016-12-12T14:54:11.675Z,144
2016-12-12T14:55:21.177Z,132
2016-12-12T14:56:30.977Z,124
2016-12-12T14:57:40.149Z,112
2016-12-12T14:58:49.943Z,100
2016-12-12T14:59:59.755Z,96
2016-12-12T15:01:09.217Z,92
2016-12-12T15:02:19.045Z,76
2016-12-12T15:03:28.833Z,72
2016-12-12T15:04:38.618Z,60
2016-12-12T15:05:48.175Z,52
2016-12-12T15:06:57.680Z,48
2016-12-12T15:08:06.249Z,44
2016-12-12T15:09:16.118Z,40
2016-12-12T15:10:25.297Z,40
2016-12-12T15:11:34.462Z,36
2016-12-12T15:12:44.258Z,40
2016-12-12T15:13:53.774Z,36
2016-12-12T15:15:03.294Z,28
2016-12-12T15:16:13.092Z,28
2016-12-12T15:17:22.570Z,20
2016-12-12T15:18:32.358Z,12
2016-12-12T15:19:41.884Z,16
2016-12-12T15:20:51.364Z,12
2016-12-12T15:22:01.285Z,16
2016-12-12T15:23:10.773Z,12
2016-12-12T15:24:20.247Z,12
2016-12-12T15:25:29.728Z,8
2016-12-12T15:26:39.196Z,8
2016-12-12T15:27:48.986Z,8
2016-12-12T15:28:58.856Z,4
2016-12-12T15:30:08.631Z,4
2016-12-12T15:31:18.480Z,4
2016-12-12T15:32:27.955Z,4
2016-12-12T15:33:37.420Z,4
2016-12-12T15:34:46.928Z,0
2016-12-12T15:35:56.524Z,4
2016-12-12T15:37:06.000Z,4
2016-12-12T15:38:15.791Z,0
2016-12-12T15:39:24.978Z,0
2016-12-12T15:40:34.448Z,0
2016-12-12T15:41:44.237Z,0
2016-12-12T15:42:53.453Z,0
2016-12-12T15:44:02.949Z,0
2016-12-12T15:45:12.430Z,0
2016-12-12T15:46:21.968Z,0
2016-12-12T15:47:31.509Z,0
2016-12-12T15:48:40.989Z,0
2016-12-12T15:49:49.887Z,0
2016-12-12T15:50:59.361Z,0
2016-12-12T15:52:09.091Z,0
2016-12-12T15:53:18.913Z,0
2016-12-12T15:54:28.399Z,0
2016-12-12T15:55:38.201Z,0
2016-12-12T15:56:47.994Z,0
2016-12-12T15:57:57.589Z,0
2016-12-12T15:59:07.051Z,0
2016-12-12T16:00:16.851Z,0
2016-12-12T16:01:26.330Z,0
2016-12-12T16:02:36.134Z,0
2016-12-12T16:03:45.610Z,0
2016-12-12T16:04:55.091Z,0
2016-12-12T16:06:04.644Z,0
2016-12-12T16:07:14.426Z,0
2016-12-12T16:08:23.910Z,0
2016-12-12T16:09:33.742Z,0
2016-12-12T16:10:43.541Z,0
2016-12-12T16:11:53.355Z,0
2016-12-12T16:13:02.828Z,0
2016-12-12T16:14:12.722Z,0
2016-12-12T16:15:22.532Z,0
2016-12-12T16:16:31.991Z,0
2016-12-12T16:17:41.172Z,0
2016-12-12T16:18:50.336Z,0
2016-12-12T16:19:59.818Z,0